Últimos artigos:
Acender um LED com a tensão da rede eléctrica
Programação do Yaesu FT-60 para os EasySats
AO-91 (RadFxSat Fox-1B) está no Ar!
CT7AFR DIY CW-Keyer
Shutdown button for the Raspberry Pi
Simple C code to dump I2C device memory
Últimas fotos:
Últimos METARs:
LPAZ 181030Z 27006KT 240V300 9999 FEW020 2...
LPFR 181030Z 18009KT CAVOK 24/17 Q1015=
LPHR 181030Z 26011KT 9999 FEW008 SCT011 BK...
LPLA 181000Z /////KT 9999 FEW012 BKN028 24...
LPMA 181030Z 02012KT 350V060 9999 FEW016 2...
LPPD 181030Z 22005KT 170V260 9999 FEW018 2...
LPPR 181030Z 31008KT 280V360 CAVOK 22/16 Q...
LPPS 181030Z 02014KT 350V050 9999 SCT015 S...
LPPT 181030Z 34013KT 320V020 9999 FEW030 2...
Últimos QSOs:
2019/05/26-18:36 6m UT4XU (NIKOLAY)
2019/05/26-18:27 6m DM2HW (JOHANNES)
2019/05/26-18:22 6m CT3MD (JOSE)
2019/05/26-18:16 6m OK1VRV (RICHTR)
2019/05/26-18:07 6m SP9CVY (JERZY)
2019/05/26-18:06 6m SP9TDA (SEBASTIAN)
  UTC
Rpi-6 CPU Temp: 39.5 °C (181051Z)
IN51oq 1051Z /////KT //// 28/13 Q1018=
41961